DAL685 KLGA-KSYR
Flight info
| Callsign | DAL685 |
|---|---|
| Flight time | 0h 33m |
| Altitude | 28000 |
| Route | NEION Q232 CORDS CFB/N0390F170 T335 SYR |
| Aircraft | A320/M-SDE3FGHIRWY/LB1 |
Departure
| Time | 2026-04-24 00:32 |
|---|---|
| Airport | LaGuardia Airport (KLGA) |
Arrival
| Time | 2026-04-24 01:06 |
|---|---|
| Airport | Syracuse Hancock International Airport (KSYR) |
| Time | Latitude | Longitude | Altitude | Speed | Heading |
|---|---|---|---|---|---|
| 2026-04-23 23:55 | 40.77018 | -73.86100 | 20 ft | 0 kts | 132° |
| 2026-04-23 23:56 | 40.76987 | -73.86137 | 21 ft | 0 kts | 132° |
| 2026-04-24 00:18 | 40.76988 | -73.86139 | 19 ft | 2 kts | 132° |
| 2026-04-24 00:18 | 40.77005 | -73.86163 | 19 ft | 4 kts | 132° |
| 2026-04-24 00:18 | 40.77014 | -73.86187 | 22 ft | 4 kts | 61° |
| 2026-04-24 00:18 | 40.77006 | -73.86201 | 19 ft | 2 kts | 42° |
| 2026-04-24 00:19 | 40.77025 | -73.86179 | 19 ft | 4 kts | 42° |
| 2026-04-24 00:19 | 40.77045 | -73.86155 | 19 ft | 4 kts | 42° |
| 2026-04-24 00:19 | 40.77065 | -73.86131 | 21 ft | 4 kts | 42° |
| 2026-04-24 00:19 | 40.77077 | -73.86116 | 19 ft | 0 kts | 42° |
| 2026-04-24 00:23 | 40.77097 | -73.86091 | 19 ft | 6 kts | 43° |
| 2026-04-24 00:23 | 40.77137 | -73.86041 | 17 ft | 11 kts | 44° |
| 2026-04-24 00:23 | 40.77193 | -73.86072 | 13 ft | 10 kts | 298° |
| 2026-04-24 00:23 | 40.77251 | -73.86106 | 12 ft | 11 kts | 14° |
| 2026-04-24 00:24 | 40.77307 | -73.86149 | 13 ft | 10 kts | 304° |
| 2026-04-24 00:24 | 40.77346 | -73.86236 | 13 ft | 12 kts | 299° |
| 2026-04-24 00:24 | 40.77390 | -73.86334 | 12 ft | 13 kts | 301° |
| 2026-04-24 00:24 | 40.77442 | -73.86440 | 13 ft | 14 kts | 304° |
| 2026-04-24 00:25 | 40.77498 | -73.86558 | 12 ft | 16 kts | 302° |
| 2026-04-24 00:25 | 40.77559 | -73.86684 | 12 ft | 17 kts | 302° |
| 2026-04-24 00:25 | 40.77622 | -73.86816 | 12 ft | 17 kts | 302° |
| 2026-04-24 00:25 | 40.77688 | -73.86953 | 12 ft | 18 kts | 301° |
| 2026-04-24 00:26 | 40.77755 | -73.87091 | 14 ft | 18 kts | 301° |
| 2026-04-24 00:26 | 40.77818 | -73.87230 | 13 ft | 17 kts | 296° |
| 2026-04-24 00:26 | 40.77832 | -73.87387 | 13 ft | 18 kts | 265° |
| 2026-04-24 00:26 | 40.77784 | -73.87527 | 19 ft | 16 kts | 228° |
| 2026-04-24 00:27 | 40.77703 | -73.87614 | 21 ft | 14 kts | 215° |
| 2026-04-24 00:27 | 40.77620 | -73.87681 | 21 ft | 14 kts | 211° |
| 2026-04-24 00:27 | 40.77530 | -73.87758 | 21 ft | 16 kts | 215° |
| 2026-04-24 00:27 | 40.77423 | -73.87845 | 22 ft | 20 kts | 213° |
| 2026-04-24 00:28 | 40.77305 | -73.87949 | 20 ft | 13 kts | 196° |
| 2026-04-24 00:28 | 40.77220 | -73.88010 | 20 ft | 15 kts | 212° |
| 2026-04-24 00:28 | 40.77140 | -73.88080 | 22 ft | 11 kts | 211° |
| 2026-04-24 00:28 | 40.77069 | -73.88138 | 23 ft | 13 kts | 213° |
| 2026-04-24 00:29 | 40.77001 | -73.88209 | 26 ft | 12 kts | 223° |
| 2026-04-24 00:29 | 40.76957 | -73.88266 | 27 ft | 7 kts | 226° |
| 2026-04-24 00:29 | 40.76950 | -73.88275 | 28 ft | 0 kts | 227° |
| 2026-04-24 00:30 | 40.76950 | -73.88276 | 28 ft | 0 kts | 227° |
| 2026-04-24 00:30 | 40.76935 | -73.88297 | 29 ft | 10 kts | 230° |
| 2026-04-24 00:31 | 40.76922 | -73.88387 | 30 ft | 10 kts | 302° |
| 2026-04-24 00:31 | 40.76968 | -73.88376 | 30 ft | 7 kts | 33° |
| 2026-04-24 00:31 | 40.77118 | -73.88250 | 25 ft | 61 kts | 31° |
| 2026-04-24 00:31 | 40.77683 | -73.87783 | 25 ft | 127 kts | 32° |
| 2026-04-24 00:32 | 40.78554 | -73.87061 | 278 ft | 154 kts | 29° |
| 2026-04-24 00:32 | 40.79485 | -73.86325 | 909 ft | 156 kts | 21° |
| 2026-04-24 00:32 | 40.80541 | -73.86123 | 1526 ft | 157 kts | 351° |
| 2026-04-24 00:32 | 40.81678 | -73.86286 | 1960 ft | 176 kts | 348° |
| 2026-04-24 00:33 | 40.82982 | -73.86594 | 2133 ft | 206 kts | 346° |
| 2026-04-24 00:33 | 40.84470 | -73.87078 | 2458 ft | 232 kts | 334° |
| 2026-04-24 00:33 | 40.85773 | -73.88418 | 3026 ft | 247 kts | 307° |
| 2026-04-24 00:33 | 40.86454 | -73.90496 | 3914 ft | 253 kts | 282° |
| 2026-04-24 00:34 | 40.86491 | -73.92869 | 4828 ft | 259 kts | 271° |
| 2026-04-24 00:34 | 40.86403 | -73.95233 | 5842 ft | 259 kts | 272° |
| 2026-04-24 00:34 | 40.86318 | -73.97580 | 6865 ft | 253 kts | 273° |
| 2026-04-24 00:34 | 40.86320 | -73.99887 | 7742 ft | 251 kts | 283° |
| 2026-04-24 00:35 | 40.86987 | -74.01978 | 8484 ft | 250 kts | 309° |
| 2026-04-24 00:35 | 40.88154 | -74.03657 | 9504 ft | 244 kts | 313° |
| 2026-04-24 00:35 | 40.89294 | -74.05278 | 10476 ft | 242 kts | 313° |
| 2026-04-24 00:35 | 40.90442 | -74.06978 | 10840 ft | 260 kts | 312° |
| 2026-04-24 00:36 | 40.91644 | -74.08858 | 11255 ft | 276 kts | 311° |
| 2026-04-24 00:36 | 40.92914 | -74.10894 | 11430 ft | 298 kts | 311° |
| 2026-04-24 00:36 | 40.94261 | -74.13043 | 11895 ft | 308 kts | 311° |
| 2026-04-24 00:36 | 40.95643 | -74.15229 | 12578 ft | 311 kts | 311° |
| 2026-04-24 00:37 | 40.97044 | -74.17431 | 13302 ft | 314 kts | 312° |
| 2026-04-24 00:37 | 40.98461 | -74.19652 | 13977 ft | 317 kts | 312° |
| 2026-04-24 00:37 | 40.99891 | -74.21892 | 14590 ft | 320 kts | 312° |
| 2026-04-24 00:37 | 41.01334 | -74.24152 | 15195 ft | 323 kts | 311° |
| 2026-04-24 00:38 | 41.02790 | -74.26438 | 15803 ft | 326 kts | 311° |
| 2026-04-24 00:38 | 41.04262 | -74.28749 | 16393 ft | 329 kts | 311° |
| 2026-04-24 00:38 | 41.05745 | -74.31082 | 16882 ft | 332 kts | 311° |
| 2026-04-24 00:38 | 41.07232 | -74.33424 | 17000 ft | 332 kts | 311° |
| 2026-04-24 00:39 | 41.08729 | -74.35786 | 17488 ft | 336 kts | 310° |
| 2026-04-24 00:39 | 41.10239 | -74.38170 | 18071 ft | 340 kts | 310° |
| 2026-04-24 00:39 | 41.11769 | -74.40586 | 18600 ft | 344 kts | 310° |
| 2026-04-24 00:39 | 41.16817 | -74.48561 | 20343 ft | 351 kts | 310° |
| 2026-04-24 00:40 | 41.23165 | -74.58650 | 22239 ft | 361 kts | 310° |
| 2026-04-24 00:40 | 41.29611 | -74.69110 | 23906 ft | 370 kts | 309° |
| 2026-04-24 00:40 | 41.36180 | -74.79818 | 25232 ft | 377 kts | 309° |
| 2026-04-24 00:40 | 41.42842 | -74.90718 | 26592 ft | 381 kts | 310° |
| 2026-04-24 00:41 | 41.49569 | -75.01776 | 27770 ft | 387 kts | 309° |
| 2026-04-24 00:41 | 41.56350 | -75.12956 | 28080 ft | 386 kts | 309° |
| 2026-04-24 00:41 | 41.69866 | -75.35556 | 27892 ft | 392 kts | 309° |
| 2026-04-24 00:42 | 41.76592 | -75.46881 | 27830 ft | 390 kts | 309° |
| 2026-04-24 00:42 | 41.83336 | -75.58282 | 27971 ft | 386 kts | 309° |
| 2026-04-24 00:42 | 41.90088 | -75.69726 | 28097 ft | 388 kts | 309° |
| 2026-04-24 00:42 | 41.96831 | -75.81194 | 28065 ft | 394 kts | 309° |
| 2026-04-24 00:43 | 42.03508 | -75.92616 | 27934 ft | 398 kts | 308° |
| 2026-04-24 00:43 | 42.10205 | -76.04107 | 27826 ft | 396 kts | 308° |
| 2026-04-24 00:43 | 42.18990 | -76.12187 | 27683 ft | 407 kts | 348° |
| 2026-04-24 00:43 | 42.30445 | -76.11917 | 26725 ft | 416 kts | 358° |
| 2026-04-24 00:44 | 42.33830 | -76.11584 | 26009 ft | 415 kts | 358° |
| 2026-04-24 00:44 | 42.36702 | -76.11263 | 25200 ft | 413 kts | 359° |
| 2026-04-24 00:44 | 42.39556 | -76.10921 | 24431 ft | 411 kts | 359° |
| 2026-04-24 00:44 | 42.42397 | -76.10573 | 23645 ft | 409 kts | 359° |
| 2026-04-24 00:45 | 42.45221 | -76.10229 | 22808 ft | 406 kts | 359° |
| 2026-04-24 00:45 | 42.47074 | -76.10005 | 22342 ft | 402 kts | 358° |
| 2026-04-24 00:45 | 42.49847 | -76.09675 | 21632 ft | 398 kts | 358° |
| 2026-04-24 00:45 | 42.53515 | -76.09241 | 20714 ft | 393 kts | 358° |
| 2026-04-24 00:46 | 42.56227 | -76.08927 | 20052 ft | 390 kts | 358° |
| 2026-04-24 00:46 | 42.58917 | -76.08614 | 19435 ft | 386 kts | 358° |
| 2026-04-24 00:46 | 42.60687 | -76.08408 | 19002 ft | 385 kts | 358° |
| 2026-04-24 00:46 | 42.64227 | -76.07998 | 18201 ft | 379 kts | 358° |
| 2026-04-24 00:47 | 42.66840 | -76.07779 | 17601 ft | 370 kts | 353° |
| 2026-04-24 00:47 | 42.69350 | -76.08139 | 17073 ft | 358 kts | 344° |
| 2026-04-24 00:47 | 42.71742 | -76.08773 | 16593 ft | 352 kts | 344° |
| 2026-04-24 00:47 | 42.73356 | -76.09197 | 16259 ft | 348 kts | 344° |
| 2026-04-24 00:48 | 42.76474 | -76.10013 | 15601 ft | 341 kts | 343° |
| 2026-04-24 00:48 | 42.78815 | -76.10497 | 15121 ft | 344 kts | 354° |
| 2026-04-24 00:48 | 42.81186 | -76.09874 | 14632 ft | 356 kts | 14° |
| 2026-04-24 00:48 | 42.83319 | -76.08042 | 14154 ft | 373 kts | 33° |
| 2026-04-24 00:49 | 42.84929 | -76.05182 | 13670 ft | 392 kts | 53° |
| 2026-04-24 00:49 | 42.85609 | -76.02814 | 13307 ft | 403 kts | 65° |
| 2026-04-24 00:49 | 42.86279 | -75.99098 | 12785 ft | 404 kts | 68° |
| 2026-04-24 00:49 | 42.86916 | -75.95431 | 12275 ft | 401 kts | 68° |
| 2026-04-24 00:50 | 42.87572 | -75.91742 | 11763 ft | 398 kts | 68° |
| 2026-04-24 00:50 | 42.88239 | -75.88093 | 11263 ft | 396 kts | 68° |
| 2026-04-24 00:50 | 42.88914 | -75.84463 | 11015 ft | 395 kts | 68° |
| 2026-04-24 00:50 | 42.89589 | -75.80883 | 11001 ft | 380 kts | 68° |
| 2026-04-24 00:51 | 42.90216 | -75.77478 | 11033 ft | 361 kts | 68° |
| 2026-04-24 00:51 | 42.90787 | -75.74219 | 11023 ft | 345 kts | 68° |
| 2026-04-24 00:51 | 42.91315 | -75.71089 | 10913 ft | 333 kts | 68° |
| 2026-04-24 00:51 | 42.91816 | -75.68053 | 10779 ft | 323 kts | 68° |
| 2026-04-24 00:52 | 42.92303 | -75.65092 | 10509 ft | 318 kts | 68° |
| 2026-04-24 00:52 | 42.92787 | -75.62155 | 10171 ft | 316 kts | 68° |
| 2026-04-24 00:52 | 42.93272 | -75.59234 | 9773 ft | 316 kts | 68° |
| 2026-04-24 00:52 | 42.93827 | -75.56397 | 9420 ft | 309 kts | 60° |
| 2026-04-24 00:53 | 42.94597 | -75.53702 | 9096 ft | 302 kts | 58° |
| 2026-04-24 00:53 | 42.95395 | -75.51071 | 8695 ft | 299 kts | 58° |
| 2026-04-24 00:53 | 42.96198 | -75.48465 | 8324 ft | 297 kts | 58° |
| 2026-04-24 00:53 | 42.97004 | -75.45887 | 7997 ft | 292 kts | 58° |
| 2026-04-24 00:54 | 42.97977 | -75.43538 | 7637 ft | 275 kts | 39° |
| 2026-04-24 00:54 | 42.99426 | -75.42135 | 7320 ft | 253 kts | 12° |
| 2026-04-24 00:54 | 43.01093 | -75.41902 | 6953 ft | 237 kts | 345° |
| 2026-04-24 00:54 | 43.02594 | -75.42743 | 6513 ft | 233 kts | 329° |
| 2026-04-24 00:55 | 43.03997 | -75.43870 | 5995 ft | 235 kts | 328° |
| 2026-04-24 00:55 | 43.05397 | -75.45053 | 5524 ft | 237 kts | 328° |
| 2026-04-24 00:55 | 43.06795 | -75.46254 | 5123 ft | 238 kts | 328° |
| 2026-04-24 00:55 | 43.08170 | -75.47454 | 4704 ft | 238 kts | 328° |
| 2026-04-24 00:56 | 43.09566 | -75.48679 | 4261 ft | 238 kts | 327° |
| 2026-04-24 00:56 | 43.10964 | -75.49897 | 3832 ft | 238 kts | 328° |
| 2026-04-24 00:56 | 43.12363 | -75.51106 | 3400 ft | 238 kts | 328° |
| 2026-04-24 00:56 | 43.13762 | -75.52310 | 3052 ft | 236 kts | 327° |
| 2026-04-24 00:57 | 43.15165 | -75.53497 | 3020 ft | 238 kts | 328° |
| 2026-04-24 00:57 | 43.16581 | -75.54685 | 3016 ft | 239 kts | 328° |
| 2026-04-24 00:57 | 43.19411 | -75.57072 | 3022 ft | 239 kts | 326° |
| 2026-04-24 00:58 | 43.20531 | -75.58720 | 3016 ft | 240 kts | 298° |
| 2026-04-24 00:58 | 43.20866 | -75.60966 | 3022 ft | 248 kts | 269° |
| 2026-04-24 00:58 | 43.20298 | -75.63213 | 3019 ft | 257 kts | 239° |
| 2026-04-24 00:58 | 43.18942 | -75.64848 | 3017 ft | 267 kts | 210° |
| 2026-04-24 00:59 | 43.17167 | -75.65695 | 3014 ft | 272 kts | 200° |
| 2026-04-24 00:59 | 43.15511 | -75.66829 | 3013 ft | 263 kts | 226° |
| 2026-04-24 00:59 | 43.14308 | -75.68672 | 3012 ft | 259 kts | 238° |
| 2026-04-24 00:59 | 43.13358 | -75.70738 | 3019 ft | 256 kts | 245° |
| 2026-04-24 01:00 | 43.12761 | -75.72985 | 3013 ft | 249 kts | 265° |
| 2026-04-24 01:00 | 43.12524 | -75.75325 | 3013 ft | 248 kts | 267° |
| 2026-04-24 01:00 | 43.12346 | -75.77669 | 3018 ft | 246 kts | 269° |
| 2026-04-24 01:00 | 43.12215 | -75.79918 | 3006 ft | 227 kts | 269° |
| 2026-04-24 01:01 | 43.12103 | -75.81999 | 3013 ft | 212 kts | 270° |
| 2026-04-24 01:01 | 43.11942 | -75.83998 | 3016 ft | 210 kts | 263° |
| 2026-04-24 01:01 | 43.11722 | -75.85930 | 3013 ft | 203 kts | 268° |
| 2026-04-24 01:01 | 43.11616 | -75.87824 | 3011 ft | 195 kts | 271° |
| 2026-04-24 01:02 | 43.11552 | -75.89617 | 3013 ft | 186 kts | 271° |
| 2026-04-24 01:02 | 43.11497 | -75.91356 | 2985 ft | 181 kts | 272° |
| 2026-04-24 01:02 | 43.11447 | -75.93063 | 2742 ft | 178 kts | 272° |
| 2026-04-24 01:02 | 43.11397 | -75.94736 | 2498 ft | 173 kts | 271° |
| 2026-04-24 01:03 | 43.11324 | -75.96352 | 2290 ft | 168 kts | 269° |
| 2026-04-24 01:03 | 43.11253 | -75.97934 | 2026 ft | 166 kts | 269° |
| 2026-04-24 01:03 | 43.11205 | -75.99488 | 1806 ft | 161 kts | 270° |
| 2026-04-24 01:03 | 43.11175 | -76.01009 | 1575 ft | 159 kts | 270° |
| 2026-04-24 01:04 | 43.11140 | -76.02505 | 1397 ft | 153 kts | 269° |
| 2026-04-24 01:04 | 43.11083 | -76.03885 | 1254 ft | 142 kts | 266° |
| 2026-04-24 01:04 | 43.11000 | -76.05222 | 1055 ft | 140 kts | 268° |
| 2026-04-24 01:04 | 43.10966 | -76.06564 | 877 ft | 142 kts | 271° |
| 2026-04-24 01:05 | 43.10960 | -76.07931 | 671 ft | 146 kts | 269° |
| 2026-04-24 01:05 | 43.10927 | -76.09311 | 468 ft | 143 kts | 269° |
| 2026-04-24 01:05 | 43.10890 | -76.10491 | 426 ft | 102 kts | 268° |
| 2026-04-24 01:05 | 43.10866 | -76.11231 | 427 ft | 53 kts | 268° |
| 2026-04-24 01:06 | 43.10853 | -76.11666 | 423 ft | 31 kts | 267° |
| 2026-04-24 01:06 | 43.10877 | -76.11816 | 421 ft | 9 kts | 336° |
| 2026-04-24 01:06 | 43.10943 | -76.11815 | 418 ft | 10 kts | 15° |
| 2026-04-24 01:06 | 43.10974 | -76.11736 | 420 ft | 10 kts | 87° |
| 2026-04-24 01:07 | 43.10977 | -76.11635 | 424 ft | 11 kts | 87° |
| 2026-04-24 01:07 | 43.10980 | -76.11530 | 424 ft | 11 kts | 88° |
| 2026-04-24 01:07 | 43.10983 | -76.11419 | 421 ft | 12 kts | 86° |
| 2026-04-24 01:07 | 43.10987 | -76.11300 | 415 ft | 13 kts | 88° |
| 2026-04-24 01:08 | 43.10992 | -76.11173 | 425 ft | 14 kts | 88° |
| 2026-04-24 01:08 | 43.10996 | -76.11032 | 425 ft | 16 kts | 86° |
| 2026-04-24 01:08 | 43.11003 | -76.10870 | 420 ft | 18 kts | 87° |
| 2026-04-24 01:08 | 43.11035 | -76.10726 | 419 ft | 16 kts | 30° |
| 2026-04-24 01:09 | 43.11156 | -76.10725 | 418 ft | 19 kts | 357° |
| 2026-04-24 01:09 | 43.11291 | -76.10734 | 415 ft | 20 kts | 356° |
| 2026-04-24 01:09 | 43.11396 | -76.10753 | 417 ft | 13 kts | 326° |
| 2026-04-24 01:09 | 43.11405 | -76.10845 | 419 ft | 6 kts | 264° |
| 2026-04-24 01:10 | 43.11402 | -76.10894 | 424 ft | 5 kts | 265° |
| 2026-04-24 01:10 | 43.11401 | -76.10937 | 424 ft | 4 kts | 272° |
| 2026-04-24 01:10 | 43.11415 | -76.10959 | 412 ft | 2 kts | 339° |
| 2026-04-24 01:10 | 43.11429 | -76.10963 | 424 ft | 2 kts | 353° |
| 2026-04-24 01:11 | 43.11438 | -76.10963 | 414 ft | 1 kts | 359° |
| 2026-04-24 01:11 | 43.11450 | -76.10963 | 419 ft | 1 kts | 358° |
| 2026-04-24 01:11 | 43.11452 | -76.10963 | 418 ft | 0 kts | 358° |